Time;durP1;ratioP1;P1;durP2;ratioP2;P2;SDS_P1;SDS_P2;PMS_P1;PMS_P2;Temp;Humidity;BMP_temperature;BMP_pressure;BME280_temperature;BME280_humidity;BME280_pressure;Samples;Min_cycle;Max_cycle;Signal;HPM_P1;HPM_P2
2021/03/30 00:00:09;;;;;;;34.90;22.15;;;;;;;10.40;84.35;101880.30;1697015;81;27543;-79
2021/03/30 00:02:38;;;;;;;32.65;21.75;;;;;;;10.41;84.31;101873.13;1719166;80;25915;-79
2021/03/30 00:05:06;;;;;;;38.50;22.70;;;;;;;10.43;84.36;101876.48;1757568;80;26549;-79
2021/03/30 00:07:34;;;;;;;33.55;20.72;;;;;;;10.44;84.30;101874.98;1776112;79;26111;-78
2021/03/30 00:10:02;;;;;;;38.25;21.27;;;;;;;10.44;84.30;101871.45;1722893;79;26239;-79
2021/03/30 00:12:29;;;;;;;31.20;21.50;;;;;;;10.39;84.23;101863.06;1747029;81;27554;-79
2021/03/30 00:14:56;;;;;;;30.77;21.17;;;;;;;10.40;84.25;101867.41;1741598;81;25856;-80
2021/03/30 00:17:23;;;;;;;35.70;20.85;;;;;;;10.41;84.26;101868.61;1775435;79;26477;-79
2021/03/30 00:19:50;;;;;;;31.93;20.80;;;;;;;10.42;84.23;101863.58;1710296;81;25875;-79
2021/03/30 00:22:18;;;;;;;39.53;21.40;;;;;;;10.44;84.28;101859.40;1759247;79;25854;-79
2021/03/30 00:24:45;;;;;;;33.78;21.70;;;;;;;10.44;84.15;101862.08;1761562;79;27540;-80
2021/03/30 00:27:12;;;;;;;36.80;21.97;;;;;;;10.39;84.03;101863.87;1771201;79;25840;-79
2021/03/30 00:29:46;;;;;;;31.57;21.23;;;;;;;10.36;84.14;101868.22;1727241;79;25626;-79
2021/03/30 00:32:14;;;;;;;35.90;21.48;;;;;;;10.32;84.15;101872.20;1745756;81;25782;-79
2021/03/30 00:34:41;;;;;;;45.12;23.57;;;;;;;10.33;84.29;101871.20;1750133;79;25816;-79
2021/03/30 00:37:08;;;;;;;31.12;20.62;;;;;;;10.34;84.34;101868.03;1760565;80;27525;-79
2021/03/30 00:39:35;;;;;;;30.40;21.27;;;;;;;10.35;84.31;101867.05;1690757;80;26130;-79
2021/03/30 00:42:03;;;;;;;33.35;22.10;;;;;;;10.34;84.37;101871.55;1771556;80;25913;-79
2021/03/30 00:44:31;;;;;;;30.45;21.48;;;;;;;10.36;84.41;101868.22;1798756;77;25838;-79
2021/03/30 00:47:01;;;;;;;36.17;22.50;;;;;;;10.36;84.36;101862.02;1794420;78;25679;-79
2021/03/30 00:49:33;;;;;;;32.88;21.27;;;;;;;10.36;84.42;101863.36;1732180;78;27617;-79
2021/03/30 00:52:02;;;;;;;35.03;21.93;;;;;;;10.35;84.42;101869.20;1817389;77;25777;-79
2021/03/30 00:54:47;;;;;;;31.45;20.75;;;;;;;10.40;84.38;101867.41;1785444;79;25730;-78
2021/03/30 00:57:17;;;;;;;33.20;23.07;;;;;;;10.33;84.47;101869.86;1740879;81;26398;-79
2021/03/30 00:59:45;;;;;;;38.80;22.73;;;;;;;10.35;84.51;101865.70;1729326;81;28609;-79
2021/03/30 01:02:13;;;;;;;47.83;25.17;;;;;;;10.37;84.52;101865.87;1760265;80;25600;-79
2021/03/30 01:04:41;;;;;;;37.70;22.85;;;;;;;10.38;84.44;101874.75;1703954;80;25904;-79
2021/03/30 01:07:09;;;;;;;35.80;23.05;;;;;;;10.37;84.47;101879.27;1703941;80;25855;-79
2021/03/30 01:09:57;;;;;;;34.83;21.87;;;;;;;10.36;84.42;101872.73;1732229;80;25791;-79
2021/03/30 01:13:08;;;;;;;42.33;24.15;;;;;;;10.39;84.45;101873.77;1764314;80;28228;-79
2021/03/30 01:15:59;;;;;;;32.53;22.55;;;;;;;10.40;84.50;101877.63;1719148;81;26220;-78
2021/03/30 01:19:04;;;;;;;37.03;22.55;;;;;;;10.38;84.50;101875.61;1762405;80;25835;-79
2021/03/30 01:22:16;;;;;;;37.70;23.55;;;;;;;10.36;84.51;101864.70;1749309;80;25938;-79
2021/03/30 01:24:55;;;;;;;38.45;23.40;;;;;;;10.37;84.57;101860.52;1753756;81;26111;-79
2021/03/30 01:27:53;;;;;;;38.28;24.02;;;;;;;10.36;84.55;101864.70;1728493;81;27523;-79
2021/03/30 01:30:22;;;;;;;38.90;23.30;;;;;;;10.37;84.53;101863.72;1762002;80;25789;-79
2021/03/30 01:32:57;;;;;;;37.75;23.85;;;;;;;10.39;84.52;101869.75;1762458;80;25755;-79
2021/03/30 01:35:26;;;;;;;36.83;22.85;;;;;;;10.39;84.49;101866.55;1766114;80;25869;-79
2021/03/30 01:37:55;;;;;;;37.58;21.73;;;;;;;10.40;84.50;101864.23;1684873;80;26239;-79
2021/03/30 01:40:27;;;;;;;33.88;22.10;;;;;;;10.42;84.40;101866.26;1727978;81;27549;-79
2021/03/30 01:42:56;;;;;;;35.50;21.87;;;;;;;10.42;84.41;101866.75;1734812;80;25665;-79
2021/03/30 01:45:25;;;;;;;33.80;23.32;;;;;;;10.44;84.42;101858.91;1760009;80;25625;-79
2021/03/30 01:47:54;;;;;;;36.03;23.38;;;;;;;10.46;84.40;101854.73;1714546;81;25723;-79
2021/03/30 01:50:22;;;;;;;34.98;22.15;;;;;;;10.48;84.42;101861.62;1743456;80;26478;-79
2021/03/30 01:52:51;;;;;;;37.80;21.37;;;;;;;10.49;84.33;101859.78;1762072;80;28255;-79
2021/03/30 01:55:19;;;;;;;35.48;23.65;;;;;;;10.48;84.23;101856.26;1765983;80;25701;-79
2021/03/30 01:57:53;;;;;;;39.00;22.50;;;;;;;10.48;84.29;101848.71;1732859;80;25825;-79
2021/03/30 02:00:24;;;;;;;38.20;22.82;;;;;;;10.49;84.22;101852.59;1735708;81;26437;-79
2021/03/30 02:02:51;;;;;;;35.17;22.85;;;;;;;10.49;84.23;101849.07;1762831;80;26074;-79
2021/03/30 02:05:21;;;;;;;31.85;21.82;;;;;;;10.50;84.26;101848.91;1708156;81;27551;-78
2021/03/30 02:07:55;;;;;;;35.75;21.70;;;;;;;10.50;84.16;101846.22;1743168;80;26072;-78
2021/03/30 02:13:07;;;;;;;30.90;21.77;;;;;;;10.57;84.10;101845.10;1821282;77;25756;-79
2021/03/30 02:15:34;;;;;;;40.03;23.22;;;;;;;10.50;84.05;101848.09;1718923;81;26672;-79
2021/03/30 02:18:13;;;;;;;32.75;22.30;;;;;;;10.50;84.12;101846.75;1733408;82;28438;-79
2021/03/30 02:20:42;;;;;;;38.25;22.48;;;;;;;10.49;84.07;101846.39;1684168;82;26508;-79
2021/03/30 02:23:25;;;;;;;39.03;23.62;;;;;;;10.49;84.10;101853.09;1693387;82;25811;-79
2021/03/30 02:25:55;;;;;;;33.42;22.67;;;;;;;10.49;84.10;101850.41;1706218;82;25828;-78
2021/03/30 02:28:28;;;;;;;36.77;22.90;;;;;;;10.47;84.07;101848.38;1734040;82;25745;-79
2021/03/30 02:30:56;;;;;;;40.28;22.22;;;;;;;10.45;84.11;101851.72;1692048;82;27621;-79
2021/03/30 02:33:24;;;;;;;36.63;24.27;;;;;;;10.45;84.22;101847.21;1710983;82;26077;-78
2021/03/30 02:35:54;;;;;;;36.88;25.05;;;;;;;10.44;84.14;101854.04;1712472;82;25733;-79
2021/03/30 02:38:25;;;;;;;35.33;23.90;;;;;;;10.44;84.24;101856.23;1728702;82;26088;-79
2021/03/30 02:40:53;;;;;;;39.27;23.90;;;;;;;10.42;84.22;101855.55;1677244;82;26577;-79
2021/03/30 02:43:22;;;;;;;35.30;23.10;;;;;;;10.42;84.30;101860.05;1727620;82;28602;-79
2021/03/30 02:45:52;;;;;;;39.38;23.75;;;;;;;10.41;84.34;101863.25;1706497;82;25933;-80
2021/03/30 02:48:21;;;;;;;37.55;23.57;;;;;;;10.41;84.31;101861.06;1735108;82;25850;-79
2021/03/30 02:50:50;;;;;;;40.38;23.90;;;;;;;10.41;84.38;101865.08;1659148;82;25875;-79
2021/03/30 02:53:20;;;;;;;43.17;23.80;;;;;;;10.41;84.44;101864.59;1699253;82;25750;-79
2021/03/30 02:55:49;;;;;;;37.78;24.00;;;;;;;10.40;84.42;101868.25;1712781;82;27329;-79
2021/03/30 02:58:17;;;;;;;39.20;23.80;;;;;;;10.38;84.38;101865.38;1717839;83;25781;-80
2021/03/30 03:00:44;;;;;;;36.70;22.82;;;;;;;10.36;84.45;101860.67;1670679;83;25756;-79
2021/03/30 03:03:13;;;;;;;39.00;25.75;;;;;;;10.36;84.48;101863.36;1709960;83;25880;-79
2021/03/30 03:05:44;;;;;;;43.30;27.62;;;;;;;10.32;84.54;101862.83;1683680;83;26510;-79
2021/03/30 03:08:12;;;;;;;42.58;29.55;;;;;;;10.31;84.63;101860.32;1734486;82;27564;-80
2021/03/30 03:10:40;;;;;;;40.28;26.50;;;;;;;10.32;84.73;101861.98;1707242;82;25866;-79
2021/03/30 03:13:09;;;;;;;41.28;27.37;;;;;;;10.33;84.73;101864.50;1716303;82;25896;-79
2021/03/30 03:15:38;;;;;;;41.02;25.55;;;;;;;10.36;84.82;101865.55;1716212;81;26140;-79
2021/03/30 03:18:06;;;;;;;38.17;25.75;;;;;;;10.35;84.79;101865.19;1727436;82;26036;-79
2021/03/30 03:20:34;;;;;;;44.45;28.60;;;;;;;10.35;84.73;101865.19;1666237;82;27548;-79
2021/03/30 03:23:03;;;;;;;41.77;29.50;;;;;;;10.35;84.78;101863.84;1727807;82;25782;-79
2021/03/30 03:25:31;;;;;;;47.27;29.05;;;;;;;10.37;84.90;101863.19;1713253;82;25909;-79
2021/03/30 03:28:02;;;;;;;41.45;25.60;;;;;;;10.37;84.89;101865.05;1738003;82;25693;-79
2021/03/30 03:30:33;;;;;;;36.70;24.18;;;;;;;10.36;84.87;101864.70;1718428;82;25834;-80
2021/03/30 03:33:09;;;;;;;39.98;23.45;;;;;;;10.33;84.93;101867.18;1716689;82;27534;-79
2021/03/30 03:35:37;;;;;;;39.67;24.92;;;;;;;10.31;85.08;101865.16;1680601;82;25927;-78
2021/03/30 03:38:05;;;;;;;41.45;24.02;;;;;;;10.32;85.12;101866.00;1733675;82;25924;-79
2021/03/30 03:40:33;;;;;;;38.17;22.90;;;;;;;10.30;85.15;101866.17;1717363;82;25773;-79
2021/03/30 03:43:01;;;;;;;38.85;24.02;;;;;;;10.33;85.21;101863.69;1687075;82;25796;-79
2021/03/30 03:45:28;;;;;;;39.20;24.47;;;;;;;10.35;85.28;101869.73;1713903;82;27082;-79
2021/03/30 03:47:56;;;;;;;34.78;24.00;;;;;;;10.38;85.28;101867.56;1733938;82;25922;-79
2021/03/30 03:50:23;;;;;;;42.20;26.25;;;;;;;10.40;85.25;101864.72;1689992;82;25616;-79
2021/03/30 03:52:54;;;;;;;40.73;24.82;;;;;;;10.42;85.27;101868.94;1687272;82;25856;-79
2021/03/30 03:55:21;;;;;;;;;;;;;;;10.44;85.29;101866.09;1720596;82;25766;-79
2021/03/30 03:57:59;;;;;;;38.58;23.75;;;;;;;10.42;85.29;101860.05;1708024;82;27630;-79
2021/03/30 04:00:28;;;;;;;37.35;24.55;;;;;;;10.39;85.37;101869.23;1732743;82;26082;-79
2021/03/30 04:03:03;;;;;;;39.38;23.73;;;;;;;10.39;85.39;101865.22;1707122;82;26143;-79
2021/03/30 04:05:58;;;;;;;33.45;23.10;;;;;;;10.44;85.48;101870.11;1706854;82;25922;-79
2021/03/30 04:08:32;;;;;;;38.00;23.70;;;;;;;10.47;85.40;101877.85;1710064;82;26053;-79
2021/03/30 04:11:04;;;;;;;38.53;23.35;;;;;;;10.50;85.43;101870.34;1737476;82;27543;-79
2021/03/30 04:13:34;;;;;;;31.12;23.12;;;;;;;10.51;85.30;101873.38;1700544;82;25962;-79
2021/03/30 04:16:06;;;;;;;43.43;22.67;;;;;;;10.54;85.24;101875.72;1710664;82;25860;-78
2021/03/30 04:18:36;;;;;;;40.08;24.32;;;;;;;10.53;85.06;101879.41;1688685;83;26416;-79
2021/03/30 04:21:05;;;;;;;36.58;23.52;;;;;;;10.51;85.04;101873.86;1676677;83;25881;-79
2021/03/30 04:23:33;;;;;;;37.30;22.62;;;;;;;10.49;85.13;101870.01;1676026;83;27611;-79
2021/03/30 04:26:01;;;;;;;34.98;24.47;;;;;;;10.52;85.14;101876.90;1710787;82;25938;-79
2021/03/30 04:28:28;;;;;;;38.33;23.50;;;;;;;10.53;85.11;101867.84;1706657;82;25757;-79
2021/03/30 04:30:56;;;;;;;39.83;22.20;;;;;;;10.50;85.05;101873.53;1651558;82;26252;-79
2021/03/30 04:33:23;;;;;;;36.53;23.92;;;;;;;10.43;84.93;101876.48;1721693;82;25785;-79
2021/03/30 04:35:50;;;;;;;36.17;23.07;;;;;;;10.43;85.16;101876.48;1711639;82;27310;-78
2021/03/30 04:38:17;;;;;;;41.68;25.55;;;;;;;10.43;85.23;101875.99;1703081;82;25956;-79
2021/03/30 04:40:50;;;;;;;40.08;25.45;;;;;;;10.42;85.29;101868.94;1699609;82;25949;-79
2021/03/30 04:43:14;;;;;;;43.48;25.17;;;;;;;10.45;85.37;101875.34;1727733;82;26137;-79
2021/03/30 04:45:41;;;;;;;34.18;24.32;;;;;;;10.46;85.35;101876.16;1710879;82;26399;-79
2021/03/30 04:48:09;;;;;;;34.25;24.57;;;;;;;10.44;85.31;101876.31;1683642;82;27480;-79
2021/03/30 04:50:36;;;;;;;37.98;23.80;;;;;;;10.43;85.35;101877.82;1686308;82;25787;-79
2021/03/30 04:53:03;;;;;;;40.67;24.52;;;;;;;10.43;85.50;101876.48;1711673;82;26009;-79
2021/03/30 04:55:31;;;;;;;41.20;26.90;;;;;;;10.45;85.62;101878.02;1685868;82;25831;-79
2021/03/30 04:57:58;;;;;;;39.50;23.90;;;;;;;10.47;85.54;101880.53;1710025;82;25827;-79
2021/03/30 05:00:26;;;;;;;41.33;23.70;;;;;;;10.50;85.61;101882.91;1700525;82;28434;-79
2021/03/30 05:02:53;;;;;;;38.02;23.75;;;;;;;10.50;85.56;101878.38;1736961;82;26476;-79
2021/03/30 05:05:20;;;;;;;41.77;26.68;;;;;;;10.51;85.61;101880.07;1694478;83;26331;-79
2021/03/30 05:07:48;;;;;;;40.60;24.45;;;;;;;10.50;85.54;101885.59;1710302;82;26340;-79
2021/03/30 05:10:15;;;;;;;37.90;25.25;;;;;;;10.54;85.63;101875.72;1669839;82;26195;-78
2021/03/30 05:12:42;;;;;;;40.90;24.87;;;;;;;10.56;85.61;101880.42;1717716;82;27644;-78
2021/03/30 05:15:11;;;;;;;43.40;26.70;;;;;;;10.57;85.59;101883.95;1705531;81;25898;-79
2021/03/30 05:17:38;;;;;;;46.48;27.27;;;;;;;10.59;85.58;101880.13;1703936;82;26506;-79
2021/03/30 05:20:07;;;;;;;40.45;24.37;;;;;;;10.61;85.52;101880.81;1675482;82;26080;-78
2021/03/30 05:22:35;;;;;;;46.02;27.00;;;;;;;10.63;85.55;101884.66;1700306;82;25416;-80
2021/03/30 05:25:04;;;;;;;38.20;24.82;;;;;;;10.64;85.58;101887.70;1725401;80;27087;-79
2021/03/30 05:27:31;;;;;;;40.38;23.92;;;;;;;10.64;85.56;101888.55;1714799;80;25765;-80
2021/03/30 05:29:59;;;;;;;42.45;25.43;;;;;;;10.65;85.65;101886.20;1729455;80;25701;-80
2021/03/30 05:32:26;;;;;;;39.48;24.32;;;;;;;10.69;85.69;101890.77;1725354;80;25700;-80
2021/03/30 05:34:54;;;;;;;37.78;24.52;;;;;;;10.69;85.68;101888.91;1730228;80;25758;-78
2021/03/30 05:37:21;;;;;;;40.45;25.02;;;;;;;10.71;85.64;101891.45;1692348;80;27357;-78
2021/03/30 05:39:48;;;;;;;41.42;25.82;;;;;;;10.70;85.69;101893.28;1721284;80;25825;-78
2021/03/30 05:42:18;;;;;;;44.35;27.42;;;;;;;10.72;85.76;101899.33;1730070;80;25817;-79
2021/03/30 05:44:46;;;;;;;39.33;25.72;;;;;;;10.72;85.77;101907.36;1731898;80;25915;-78
2021/03/30 05:47:19;;;;;;;35.60;24.30;;;;;;;10.73;85.86;101900.98;1703707;80;25703;-78
2021/03/30 05:49:48;;;;;;;41.83;26.07;;;;;;;10.74;86.01;101902.69;1695737;80;27650;-77
2021/03/30 05:52:31;;;;;;;41.48;26.40;;;;;;;10.75;86.10;101907.55;1720230;83;25835;-76
2021/03/30 05:54:58;;;;;;;43.75;26.70;;;;;;;10.71;86.13;101907.01;1735793;81;25807;-78
2021/03/30 05:57:28;;;;;;;42.15;26.27;;;;;;;10.70;86.30;101913.38;1695466;83;26147;-78
2021/03/30 05:59:58;;;;;;;42.65;28.67;;;;;;;10.69;86.40;101912.20;1722787;82;26182;-78
2021/03/30 06:02:37;;;;;;;41.35;26.73;;;;;;;10.70;86.49;101915.21;1741026;81;28745;-78
2021/03/30 06:05:06;;;;;;;34.38;26.25;;;;;;;10.71;86.49;101909.69;1709977;81;25892;-77
2021/03/30 06:07:38;;;;;;;40.48;27.73;;;;;;;10.72;86.57;101905.17;1725123;80;26425;-78
2021/03/30 06:10:17;;;;;;;48.78;25.97;;;;;;;10.76;86.77;101907.88;1715498;81;26182;-78
2021/03/30 06:12:45;;;;;;;36.95;24.80;;;;;;;10.82;86.92;101901.40;1724373;81;25817;-78
2021/03/30 06:15:14;;;;;;;42.30;26.52;;;;;;;10.86;87.03;101900.08;1724671;82;27535;-78
2021/03/30 06:17:48;;;;;;;41.18;25.02;;;;;;;10.91;87.01;101912.17;1683280;83;25898;-78
2021/03/30 06:20:32;;;;;;;38.23;25.55;;;;;;;10.97;87.02;101912.38;1705764;82;25656;-79
2021/03/30 06:23:03;;;;;;;36.88;22.48;;;;;;;11.00;86.99;101906.72;1723895;81;25560;-78
2021/03/30 06:25:36;;;;;;;;;;;;;;;11.07;87.17;101912.30;1723492;81;25817;-78
2021/03/30 06:28:13;;;;;;;34.63;23.00;;;;;;;11.10;87.13;101910.66;1744609;81;27587;-78
2021/03/30 06:31:03;;;;;;;33.53;23.27;;;;;;;11.16;87.19;101910.83;1794681;79;25676;-78
2021/03/30 06:33:33;;;;;;;37.23;24.52;;;;;;;11.14;86.99;101907.47;1739558;80;25659;-78
2021/03/30 06:36:33;;;;;;;37.83;22.50;;;;;;;11.19;86.95;101910.53;1767016;80;27528;-77
2021/03/30 06:39:08;;;;;;;36.53;22.93;;;;;;;11.21;86.85;101905.84;1742867;80;26004;-77
2021/03/30 06:42:01;;;;;;;41.95;25.00;;;;;;;11.20;86.78;101906.86;1742702;80;26289;-79
2021/03/30 06:44:35;;;;;;;37.53;23.70;;;;;;;11.21;86.60;101910.36;1777555;80;26107;-79
2021/03/30 06:47:22;;;;;;;37.67;22.45;;;;;;;11.26;86.90;101907.56;1734060;81;25801;-79
2021/03/30 06:49:58;;;;;;;39.33;24.77;;;;;;;11.37;87.16;101911.31;1707229;81;28460;-78
2021/03/30 06:52:34;;;;;;;41.63;23.95;;;;;;;11.51;87.35;101913.38;1687254;83;25864;-79
2021/03/30 06:55:07;;;;;;;40.10;24.82;;;;;;;11.61;87.01;101909.24;1685469;83;25860;-79
2021/03/30 06:57:46;;;;;;;34.38;24.30;;;;;;;11.67;86.58;101902.41;1684706;83;26100;-79
2021/03/30 07:00:22;;;;;;;36.75;23.92;;;;;;;11.65;86.34;101904.70;1676102;81;26398;-79
2021/03/30 07:02:57;;;;;;;40.15;23.20;;;;;;;11.65;86.08;101903.89;1694783;81;28156;-79
2021/03/30 07:05:38;;;;;;;38.60;24.30;;;;;;;11.69;86.05;101910.64;1710195;81;25782;-78
2021/03/30 07:08:12;;;;;;;41.88;25.45;;;;;;;11.72;86.05;101914.85;1734462;81;25715;-79
2021/03/30 07:10:46;;;;;;;37.80;24.45;;;;;;;11.80;86.26;101918.90;1717014;81;25792;-78
2021/03/30 07:13:16;;;;;;;37.30;24.25;;;;;;;11.89;86.21;101917.41;1684721;81;25544;-78
2021/03/30 07:15:43;;;;;;;37.35;24.23;;;;;;;11.91;85.44;101919.95;1710594;81;27141;-79
2021/03/30 07:18:36;;;;;;;28.83;20.80;;;;;;;11.94;85.58;101929.00;1713841;83;25871;-80
2021/03/30 07:21:14;;;;;;;38.20;23.47;;;;;;;11.97;85.12;101927.34;1676935;81;25876;-78
2021/03/30 07:23:46;;;;;;;39.95;24.30;;;;;;;11.99;85.46;101933.39;1705795;81;26193;-79
2021/03/30 07:26:18;;;;;;;36.58;21.35;;;;;;;12.03;85.53;101940.96;1710954;82;25942;-78
2021/03/30 07:28:59;;;;;;;34.40;21.57;;;;;;;12.07;85.41;101937.44;1713892;83;28432;-78
2021/03/30 07:31:49;;;;;;;36.23;21.77;;;;;;;12.10;85.29;101936.59;1647438;84;26092;-78
2021/03/30 07:34:48;;;;;;;36.45;21.95;;;;;;;12.11;85.03;101934.75;1658128;84;25756;-78
2021/03/30 07:37:20;;;;;;;32.15;21.23;;;;;;;12.15;84.94;101939.64;1653320;85;25963;-79
2021/03/30 07:39:52;;;;;;;34.30;21.27;;;;;;;12.23;84.76;101936.14;1683829;84;25999;-78
2021/03/30 07:42:20;;;;;;;36.53;22.15;;;;;;;12.26;84.60;101935.30;1657431;84;27548;-78
2021/03/30 07:44:50;;;;;;;30.52;19.80;;;;;;;12.31;84.84;101934.81;1653096;84;26124;-78
2021/03/30 07:47:18;;;;;;;34.80;21.75;;;;;;;12.35;84.64;101939.69;1654757;84;25947;-78
2021/03/30 07:52:27;;;;;;;33.53;19.67;;;;;;;12.48;83.76;101943.73;1786414;79;25638;-79
2021/03/30 07:55:25;;;;;;;33.63;21.57;;;;;;;12.43;84.06;101942.03;1704098;82;25812;-77
2021/03/30 07:58:13;;;;;;;28.05;18.45;;;;;;;12.49;84.24;101945.42;1735788;82;27570;-78
2021/03/30 08:00:49;;;;;;;29.30;20.32;;;;;;;12.57;83.89;101946.27;1707580;82;26229;-78
2021/03/30 08:03:24;;;;;;;30.12;19.55;;;;;;;12.60;84.12;101943.23;1702796;82;26290;-77
2021/03/30 08:06:21;;;;;;;33.58;21.30;;;;;;;12.62;83.49;101943.90;1706260;82;25762;-78
2021/03/30 08:08:55;;;;;;;27.17;19.27;;;;;;;12.63;83.95;101942.06;1737828;82;26142;-78
2021/03/30 08:11:51;;;;;;;29.27;20.72;;;;;;;12.66;83.96;101945.24;1738116;82;27541;-77
2021/03/30 08:14:28;;;;;;;31.20;18.37;;;;;;;12.70;83.94;101950.61;1706381;82;25758;-78
2021/03/30 08:16:57;;;;;;;26.37;18.27;;;;;;;12.74;83.51;101953.83;1703698;82;25879;-78
2021/03/30 08:19:28;;;;;;;34.58;20.23;;;;;;;12.69;83.08;101955.67;1742268;82;26463;-78
2021/03/30 08:22:04;;;;;;;35.13;20.25;;;;;;;12.66;83.31;101968.63;1676399;82;25894;-78
2021/03/30 08:24:52;;;;;;;30.20;18.80;;;;;;;12.60;82.72;101962.54;1705099;82;27537;-78
2021/03/30 08:27:36;;;;;;;33.20;23.18;;;;;;;12.53;82.71;101969.08;1728024;82;25896;-77
2021/03/30 08:30:09;;;;;;;33.40;22.73;;;;;;;12.45;82.79;101962.86;1734958;80;25807;-79
2021/03/30 08:32:41;;;;;;;30.02;20.60;;;;;;;12.44;83.13;101963.88;1734895;80;26126;-78
2021/03/30 08:35:30;;;;;;;32.90;21.20;;;;;;;12.49;83.10;101965.05;1711568;82;25444;-78
2021/03/30 08:37:59;;;;;;;36.13;20.15;;;;;;;12.52;83.18;101970.60;1724917;80;27361;-79
2021/03/30 08:40:40;;;;;;;26.23;16.10;;;;;;;12.59;83.28;101966.25;1699544;82;25892;-79
2021/03/30 08:43:19;;;;;;;26.25;17.87;;;;;;;12.67;83.22;101972.48;1709072;82;26476;-79
2021/03/30 08:46:14;;;;;;;25.43;16.93;;;;;;;12.69;82.80;101970.45;1737063;82;26595;-78
2021/03/30 08:48:49;;;;;;;24.90;17.50;;;;;;;12.70;82.99;101974.81;1708092;82;25735;-78
2021/03/30 08:51:18;;;;;;;24.98;16.97;;;;;;;12.75;82.83;101978.34;1730440;82;27537;-79
2021/03/30 08:53:47;;;;;;;28.00;17.80;;;;;;;12.76;83.18;101976.01;1670316;82;26142;-78
2021/03/30 08:56:16;;;;;;;26.90;18.65;;;;;;;12.77;82.70;101976.33;1675189;83;26483;-78
2021/03/30 08:58:49;;;;;;;28.10;17.98;;;;;;;12.82;83.04;101977.52;1686515;84;25817;-78
2021/03/30 09:01:16;;;;;;;23.77;17.52;;;;;;;12.92;83.04;101976.84;1686297;84;26080;-78
2021/03/30 09:03:44;;;;;;;24.50;18.05;;;;;;;12.99;83.13;101979.70;1606687;85;27721;-77
2021/03/30 09:06:36;;;;;;;25.25;18.80;;;;;;;13.06;82.82;101979.41;1656296;84;26213;-79
2021/03/30 09:09:22;;;;;;;27.05;15.68;;;;;;;13.14;83.10;101978.89;1675980;84;25846;-78
2021/03/30 09:11:51;;;;;;;25.20;16.95;;;;;;;13.20;81.91;101977.36;1682672;84;26155;-78
2021/03/30 09:14:21;;;;;;;22.70;15.78;;;;;;;13.24;82.31;101976.53;1666435;84;25840;-79
2021/03/30 09:16:50;;;;;;;21.80;15.63;;;;;;;13.26;81.42;101975.86;1660792;84;28456;-78
2021/03/30 09:19:34;;;;;;;21.17;15.93;;;;;;;13.23;81.41;101970.30;1682275;84;25954;-78
2021/03/30 09:22:18;;;;;;;20.60;13.93;;;;;;;13.25;81.83;101971.47;1683213;84;26343;-78
2021/03/30 09:27:34;;;;;;;15.32;12.05;;;;;;;13.36;81.24;101974.66;1681521;83;25724;-78
2021/03/30 09:30:06;;;;;;;15.60;12.23;;;;;;;13.29;80.18;101978.19;1657112;84;27074;-79
2021/03/30 09:32:34;;;;;;;18.65;12.45;;;;;;;13.22;80.34;101975.83;1683290;84;26423;-78
2021/03/30 09:35:09;;;;;;;14.68;11.80;;;;;;;13.18;80.37;101972.66;1644538;84;25786;-79
2021/03/30 09:37:45;;;;;;;18.15;14.18;;;;;;;13.18;80.55;101979.37;1654610;84;25756;-79
2021/03/30 09:40:16;;;;;;;18.98;14.50;;;;;;;13.15;80.28;101982.43;1646220;84;25920;-78
2021/03/30 09:42:45;;;;;;;20.70;14.40;;;;;;;13.13;80.29;101988.45;1679207;84;27629;-78
2021/03/30 09:45:17;;;;;;;20.35;12.80;;;;;;;13.08;80.56;101981.42;1654194;84;25777;-78
2021/03/30 09:47:44;;;;;;;14.05;10.15;;;;;;;13.03;80.21;101985.92;1667611;84;25799;-79
2021/03/30 09:50:13;;;;;;;11.03;9.00;;;;;;;13.00;80.05;101988.12;1653132;84;26352;-78
2021/03/30 09:52:40;;;;;;;13.08;10.55;;;;;;;12.97;80.09;101990.64;1682302;83;25808;-78
2021/03/30 09:55:09;;;;;;;17.27;12.33;;;;;;;12.94;79.76;101988.77;1639993;84;28455;-78
2021/03/30 09:57:36;;;;;;;17.07;12.20;;;;;;;12.90;79.92;101990.12;1664664;84;25812;-78
2021/03/30 10:00:06;;;;;;;19.15;13.95;;;;;;;12.89;80.18;101986.61;1658337;83;25373;-79
2021/03/30 10:02:37;;;;;;;19.42;14.75;;;;;;;12.91;80.21;101986.44;1667294;83;25865;-78
2021/03/30 10:05:11;;;;;;;19.40;14.60;;;;;;;12.92;80.52;101989.44;1638941;83;26346;-79
2021/03/30 10:07:40;;;;;;;18.25;14.03;;;;;;;12.94;80.63;101990.96;1655146;85;28464;-78
2021/03/30 10:10:16;;;;;;;21.57;14.97;;;;;;;12.99;80.66;101989.96;1654860;83;26462;-79
2021/03/30 10:12:58;;;;;;;24.92;18.42;;;;;;;13.03;80.71;101986.42;1688717;83;25930;-78
2021/03/30 10:15:40;;;;;;;21.50;17.23;;;;;;;13.04;80.25;101991.66;1669656;83;26343;-78
2021/03/30 10:18:10;;;;;;;20.10;15.50;;;;;;;13.03;79.96;101990.45;1649756;85;25878;-79
2021/03/30 10:20:53;;;;;;;21.80;16.93;;;;;;;13.03;79.84;101993.14;1631213;83;28313;-78
2021/03/30 10:23:29;;;;;;;20.45;17.98;;;;;;;13.04;80.00;101987.62;1679193;83;25867;-79
2021/03/30 10:25:56;;;;;;;22.62;16.45;;;;;;;13.07;80.11;101991.83;1629863;85;25849;-79
2021/03/30 10:28:31;;;;;;;19.12;15.30;;;;;;;13.13;80.13;101992.48;1670571;83;26541;-78
2021/03/30 10:31:06;;;;;;;20.95;16.67;;;;;;;13.10;79.95;101989.66;1677347;83;26009;-78
2021/03/30 10:33:44;;;;;;;23.57;16.80;;;;;;;13.11;80.04;101986.44;1673278;85;27612;-76
2021/03/30 10:36:15;;;;;;;20.65;16.60;;;;;;;13.13;79.94;101987.11;1605132;85;26114;-78
2021/03/30 10:39:09;;;;;;;18.62;14.10;;;;;;;13.15;79.89;101991.31;1626393;85;25496;-79
2021/03/30 10:41:40;;;;;;;21.40;16.60;;;;;;;13.15;79.40;101991.31;1659595;84;25827;-79
2021/03/30 10:44:07;;;;;;;;;;;;;;;13.13;79.87;101985.27;1671959;85;25791;-78
2021/03/30 10:46:49;;;;;;;18.87;14.98;;;;;;;13.18;79.82;101983.91;1667855;85;26929;-78
2021/03/30 10:49:16;;;;;;;19.40;16.23;;;;;;;13.20;80.00;101985.92;1676792;83;26444;-78
2021/03/30 10:51:46;;;;;;;21.35;16.20;;;;;;;13.21;79.91;101980.40;1646587;85;26687;-78
2021/03/30 10:54:18;;;;;;;20.77;17.27;;;;;;;13.26;79.97;101986.09;1635096;85;25834;-79
2021/03/30 10:56:43;;;;;;;18.40;15.68;;;;;;;13.30;80.02;101991.98;1649810;85;25966;-79
2021/03/30 10:59:15;;;;;;;13.40;11.40;;;;;;;13.33;79.99;101993.83;1650078;83;27553;-78
2021/03/30 11:01:43;;;;;;;12.60;9.43;;;;;;;13.35;79.51;101989.61;1644645;85;26377;-79
2021/03/30 11:04:10;;;;;;;11.57;9.20;;;;;;;13.35;79.33;101985.07;1633858;85;26593;-80
2021/03/30 11:06:38;;;;;;;12.70;8.10;;;;;;;13.33;79.22;101988.44;1632894;85;25915;-80
2021/03/30 11:09:06;;;;;;;9.13;6.62;;;;;;;13.32;79.32;101988.12;1632080;83;26625;-79
2021/03/30 11:11:34;;;;;;;8.25;6.40;;;;;;;13.31;78.74;101990.47;1656201;85;27269;-79
2021/03/30 11:14:01;;;;;;;7.30;5.33;;;;;;;13.31;78.94;101981.55;1637600;85;26189;-78
2021/03/30 11:16:28;;;;;;;6.72;5.10;;;;;;;13.32;78.96;101985.43;1632628;85;25806;-81
2021/03/30 11:18:56;;;;;;;7.15;4.30;;;;;;;13.34;78.90;101982.56;1634265;85;25817;-78
2021/03/30 11:21:23;;;;;;;5.22;4.37;;;;;;;13.35;78.82;101981.53;1679077;85;25444;-79
2021/03/30 11:23:58;;;;;;;7.65;4.50;;;;;;;13.36;78.65;101981.88;1674470;85;29245;-79
2021/03/30 11:26:20;;;;;;;5.45;4.00;;;;;;;13.39;78.52;101977.48;1674937;83;25864;-79
2021/03/30 11:28:47;;;;;;;5.83;3.72;;;;;;;13.42;78.69;101973.97;1674616;83;25736;-79
2021/03/30 11:33:59;;;;;;;5.15;3.33;;;;;;;13.55;77.68;101973.42;1817235;77;26452;-79
2021/03/30 11:36:25;;;;;;;6.70;3.40;;;;;;;13.51;78.08;101972.09;1779134;78;25746;-79
2021/03/30 11:38:53;;;;;;;6.10;4.50;;;;;;;13.54;77.72;101971.73;1771855;78;27523;-79
2021/03/30 11:41:20;;;;;;;11.18;6.80;;;;;;;13.55;77.74;101972.08;1680505;81;26259;-78
2021/03/30 11:43:48;;;;;;;7.37;5.35;;;;;;;13.54;77.11;101976.61;1696981;82;26088;-80
2021/03/30 11:46:15;;;;;;;6.70;4.50;;;;;;;13.54;77.16;101977.11;1716157;81;26493;-79